Time;durP1;ratioP1;P1;durP2;ratioP2;P2;SDS_P1;SDS_P2;PMS_P1;PMS_P2;Temp;Humidity;BMP_temperature;BMP_pressure;BME280_temperature;BME280_humidity;BME280_pressure;Samples;Min_cycle;Max_cycle;Signal;HPM_P1;HPM_P2
2021/09/16 00:01:19;;;;;;;2.67;1.02;;;16.40;94.10;;;;;;5051765;28;20405;-76
2021/09/16 00:03:44;;;;;;;1.30;0.77;;;16.40;94.20;;;;;;5053952;28;20035;-75
2021/09/16 00:06:10;;;;;;;3.63;1.20;;;16.40;94.20;;;;;;5053619;28;20393;-76
2021/09/16 00:08:36;;;;;;;2.30;1.00;;;16.40;94.20;;;;;;5051523;28;20226;-75
2021/09/16 00:11:02;;;;;;;1.20;0.80;;;16.30;94.20;;;;;;5053550;28;20023;-76
2021/09/16 00:13:27;;;;;;;1.13;0.80;;;16.30;94.30;;;;;;5052628;28;20021;-76
2021/09/16 00:15:53;;;;;;;1.10;0.68;;;16.30;94.30;;;;;;5053471;28;20064;-75
2021/09/16 00:18:20;;;;;;;1.95;0.80;;;16.30;94.40;;;;;;5052742;28;20124;-76
2021/09/16 00:20:46;;;;;;;1.83;0.93;;;16.30;94.40;;;;;;5051677;28;20017;-75
2021/09/16 00:23:12;;;;;;;0.77;0.55;;;16.30;94.40;;;;;;5053039;28;20035;-75
2021/09/16 00:25:37;;;;;;;2.53;0.98;;;16.20;94.40;;;;;;5052616;28;20035;-75
2021/09/16 00:28:03;;;;;;;2.38;0.80;;;16.20;94.40;;;;;;5053200;28;20045;-75
2021/09/16 00:30:29;;;;;;;2.70;1.00;;;16.10;94.40;;;;;;5052257;28;20067;-75
2021/09/16 00:32:54;;;;;;;3.15;0.98;;;16.10;94.40;;;;;;5053089;28;20020;-75
2021/09/16 00:35:20;;;;;;;1.70;0.80;;;16.10;94.40;;;;;;5051067;28;20025;-76
2021/09/16 00:37:46;;;;;;;2.53;0.75;;;16.10;94.50;;;;;;5052897;28;20031;-76
2021/09/16 00:40:12;;;;;;;1.40;0.80;;;16.10;94.50;;;;;;5052845;28;20063;-75
2021/09/16 00:42:37;;;;;;;4.53;1.40;;;16.10;94.50;;;;;;5050968;28;20025;-76
2021/09/16 00:45:03;;;;;;;1.08;0.82;;;16.00;94.50;;;;;;5052482;28;20032;-75
2021/09/16 00:47:29;;;;;;;2.15;1.00;;;16.00;94.50;;;;;;5050847;28;20013;-75
2021/09/16 00:49:55;;;;;;;2.05;1.02;;;16.00;94.50;;;;;;5051682;28;20033;-75
2021/09/16 00:52:22;;;;;;;1.08;0.98;;;16.00;94.50;;;;;;5050729;28;20381;-76
2021/09/16 00:54:49;;;;;;;4.00;0.93;;;16.00;94.60;;;;;;5051410;28;20423;-75
2021/09/16 00:57:17;;;;;;;2.42;0.90;;;16.00;94.60;;;;;;5052335;28;20060;-76
2021/09/16 00:59:45;;;;;;;2.78;0.90;;;16.00;94.60;;;;;;5052237;28;20571;-75
2021/09/16 01:02:11;;;;;;;1.77;0.75;;;16.10;94.50;;;;;;5051273;28;20025;-74
2021/09/16 01:04:37;;;;;;;1.83;0.90;;;16.10;94.40;;;;;;5051870;28;20415;-75
2021/09/16 01:07:03;;;;;;;1.25;0.82;;;16.10;94.40;;;;;;5050908;28;20418;-74
2021/09/16 01:09:32;;;;;;;2.95;0.93;;;16.20;94.40;;;;;;5051770;28;20075;-75
2021/09/16 01:11:58;;;;;;;1.65;0.75;;;16.20;94.40;;;;;;5052396;28;20020;-75
2021/09/16 01:14:28;;;;;;;3.55;0.80;;;16.20;94.40;;;;;;5050344;28;20025;-76
2021/09/16 01:16:54;;;;;;;1.38;0.82;;;16.10;94.30;;;;;;5051975;28;20498;-75
2021/09/16 01:19:21;;;;;;;3.65;0.82;;;16.10;94.40;;;;;;5051980;28;20396;-75
2021/09/16 01:21:47;;;;;;;2.40;0.80;;;16.20;94.40;;;;;;5052118;28;20439;-75
2021/09/16 01:24:13;;;;;;;2.83;0.90;;;16.10;94.40;;;;;;5052201;28;20017;-75
2021/09/16 01:26:40;;;;;;;1.65;0.90;;;16.00;94.50;;;;;;5051206;28;20033;-77
2021/09/16 01:29:06;;;;;;;3.40;1.00;;;16.00;94.50;;;;;;5052017;28;20037;-77
2021/09/16 01:31:42;;;;;;;3.53;1.17;;;16.00;94.60;;;;;;5050154;28;20017;-77
2021/09/16 01:34:10;;;;;;;3.70;0.95;;;16.00;94.70;;;;;;5050899;28;20024;-77
2021/09/16 01:36:37;;;;;;;3.00;0.70;;;16.00;94.70;;;;;;5051518;28;20021;-77
2021/09/16 01:39:07;;;;;;;2.05;0.82;;;15.90;94.70;;;;;;5052314;28;20050;-77
2021/09/16 01:41:32;;;;;;;1.77;0.82;;;15.90;94.80;;;;;;5051663;28;20036;-77
2021/09/16 01:43:58;;;;;;;2.15;0.60;;;15.90;94.90;;;;;;5051918;28;20025;-77
2021/09/16 01:46:24;;;;;;;1.25;0.68;;;15.90;94.90;;;;;;5051251;28;20036;-76
2021/09/16 01:48:50;;;;;;;1.17;0.70;;;15.90;94.90;;;;;;5050483;28;20033;-75
2021/09/16 01:51:16;;;;;;;1.92;0.68;;;15.90;95.00;;;;;;5051539;28;20104;-75
2021/09/16 01:53:42;;;;;;;0.80;0.63;;;15.90;94.90;;;;;;5051202;28;20025;-75
2021/09/16 01:56:08;;;;;;;1.55;0.70;;;15.90;95.00;;;;;;5051748;28;20029;-75
2021/09/16 01:58:36;;;;;;;1.95;0.98;;;15.90;95.00;;;;;;5051226;28;20033;-75
2021/09/16 02:01:03;;;;;;;1.38;0.60;;;15.90;95.00;;;;;;5051430;28;20452;-75
2021/09/16 02:03:29;;;;;;;2.50;0.90;;;15.90;95.10;;;;;;5051248;28;20025;-75
2021/09/16 02:05:54;;;;;;;1.63;0.90;;;15.90;95.10;;;;;;5050120;28;20025;-75
2021/09/16 02:08:20;;;;;;;1.92;0.63;;;15.90;95.10;;;;;;5050045;28;20033;-75
2021/09/16 02:10:46;;;;;;;4.05;0.75;;;15.90;95.10;;;;;;5051207;28;20013;-75
2021/09/16 02:13:11;;;;;;;3.33;0.95;;;15.80;95.10;;;;;;5050378;28;20385;-75
2021/09/16 02:15:37;;;;;;;2.70;1.05;;;15.80;95.20;;;;;;5050966;28;20021;-76
2021/09/16 02:18:03;;;;;;;2.75;0.80;;;15.80;95.20;;;;;;5051339;28;20116;-75
2021/09/16 02:20:28;;;;;;;1.55;1.00;;;15.80;95.20;;;;;;5050752;28;20032;-74
2021/09/16 02:22:54;;;;;;;1.35;0.90;;;15.80;95.20;;;;;;5050327;28;20025;-75
2021/09/16 02:25:20;;;;;;;2.28;1.05;;;15.90;95.10;;;;;;5051563;28;20025;-75
2021/09/16 02:27:45;;;;;;;3.72;1.20;;;15.80;95.10;;;;;;5049388;28;20658;-74
2021/09/16 02:30:12;;;;;;;1.85;0.85;;;15.80;95.10;;;;;;5050154;28;20027;-76
2021/09/16 02:32:37;;;;;;;3.50;1.55;;;15.80;95.10;;;;;;5050614;28;20025;-76
2021/09/16 02:35:03;;;;;;;2.65;1.02;;;15.80;95.10;;;;;;5051409;28;20057;-75
2021/09/16 02:37:29;;;;;;;1.77;0.90;;;15.80;95.10;;;;;;5050879;28;20135;-76
2021/09/16 02:39:55;;;;;;;2.45;1.15;;;15.90;95.10;;;;;;5050249;28;20025;-76
2021/09/16 02:42:20;;;;;;;2.08;1.00;;;15.90;95.10;;;;;;5050163;28;20093;-75
2021/09/16 02:44:46;;;;;;;3.53;1.20;;;15.90;95.00;;;;;;5050698;28;20017;-76
2021/09/16 02:47:12;;;;;;;1.00;0.75;;;15.90;95.00;;;;;;5049738;28;20075;-75
2021/09/16 02:49:37;;;;;;;3.90;1.10;;;16.00;95.00;;;;;;5049216;28;20083;-76
2021/09/16 02:52:03;;;;;;;2.65;0.93;;;16.00;95.00;;;;;;5049671;28;20040;-75
2021/09/16 02:54:29;;;;;;;2.95;1.05;;;16.00;95.00;;;;;;5049322;28;20028;-76
2021/09/16 02:56:54;;;;;;;2.22;1.13;;;16.00;94.90;;;;;;5051232;28;20032;-75
2021/09/16 02:59:20;;;;;;;3.22;1.15;;;16.00;94.90;;;;;;5051137;28;20025;-74
2021/09/16 03:01:46;;;;;;;1.55;1.00;;;16.10;94.90;;;;;;5049272;28;20025;-74
2021/09/16 03:04:11;;;;;;;2.60;1.10;;;16.00;95.20;;;;;;5051602;28;20032;-74
2021/09/16 03:06:37;;;;;;;2.40;0.90;;;16.00;94.90;;;;;;5054032;28;20144;-75
2021/09/16 03:09:03;;;;;;;2.72;0.98;;;16.00;94.90;;;;;;5054667;28;20024;-75
2021/09/16 03:11:29;;;;;;;3.42;1.13;;;16.00;94.90;;;;;;5054642;28;20048;-75
2021/09/16 03:13:54;;;;;;;2.15;1.15;;;16.10;94.90;;;;;;5054666;28;20079;-75
2021/09/16 03:16:20;;;;;;;1.75;1.23;;;16.10;94.90;;;;;;5054864;28;20098;-75
2021/09/16 03:18:46;;;;;;;3.17;1.15;;;16.10;94.90;;;;;;5053824;28;20035;-75
2021/09/16 03:21:12;;;;;;;4.88;1.10;;;16.10;94.90;;;;;;5054684;28;20027;-75
2021/09/16 03:23:38;;;;;;;3.03;1.08;;;16.10;94.80;;;;;;5052429;28;20021;-75
2021/09/16 03:26:04;;;;;;;1.98;0.85;;;16.10;94.80;;;;;;5054528;28;20021;-75
2021/09/16 03:28:29;;;;;;;1.90;0.98;;;16.10;94.90;;;;;;5054252;28;20049;-75
2021/09/16 03:30:55;;;;;;;3.15;0.88;;;16.20;94.90;;;;;;5054131;28;20033;-75
2021/09/16 03:33:20;;;;;;;0.85;0.57;;;16.10;94.90;;;;;;5054261;28;20025;-75
2021/09/16 03:35:46;;;;;;;1.65;0.93;;;16.10;94.90;;;;;;5053534;28;20025;-75
2021/09/16 03:38:12;;;;;;;3.42;1.10;;;16.10;94.90;;;;;;5054192;28;20021;-76
2021/09/16 03:40:37;;;;;;;3.70;1.50;;;16.10;95.00;;;;;;5052194;28;20484;-76
2021/09/16 03:43:03;;;;;;;1.67;0.90;;;16.10;95.00;;;;;;5060711;28;20511;-75
2021/09/16 03:45:29;;;;;;;1.70;0.85;;;16.10;95.00;;;;;;5072581;28;20027;-75
2021/09/16 03:47:54;;;;;;;3.75;1.23;;;16.10;95.00;;;;;;5071702;28;20489;-75
2021/09/16 03:50:20;;;;;;;1.88;0.88;;;16.10;95.00;;;;;;5072696;28;20020;-75
2021/09/16 03:52:46;;;;;;;4.97;1.58;;;16.10;95.10;;;;;;5071603;28;20464;-75
2021/09/16 03:55:11;;;;;;;2.58;1.20;;;16.10;95.20;;;;;;5073837;28;20357;-75
2021/09/16 03:57:37;;;;;;;3.45;1.30;;;16.10;95.30;;;;;;5073214;28;20368;-75
2021/09/16 04:00:06;;;;;;;1.90;1.35;;;16.10;95.40;;;;;;5072364;28;20021;-75
2021/09/16 04:02:32;;;;;;;3.72;1.13;;;16.00;95.40;;;;;;5073770;28;20103;-75
2021/09/16 04:04:58;;;;;;;2.38;1.20;;;16.00;95.50;;;;;;5072413;28;20017;-75
2021/09/16 04:07:24;;;;;;;3.30;0.90;;;16.00;95.50;;;;;;5073806;28;20493;-75
2021/09/16 04:09:49;;;;;;;2.80;1.30;;;16.00;95.50;;;;;;5072677;28;20449;-75
2021/09/16 04:12:15;;;;;;;4.65;1.45;;;16.00;95.50;;;;;;5072269;28;20025;-75
2021/09/16 04:14:41;;;;;;;1.58;1.10;;;16.00;95.50;;;;;;5071158;28;20032;-75
2021/09/16 04:17:06;;;;;;;2.35;1.20;;;16.00;95.60;;;;;;5072173;28;20050;-75
2021/09/16 04:19:32;;;;;;;2.63;1.20;;;16.00;95.60;;;;;;5073094;28;20362;-75
2021/09/16 04:21:58;;;;;;;2.42;1.08;;;16.00;95.70;;;;;;5071407;28;20536;-75
2021/09/16 04:24:23;;;;;;;2.15;1.23;;;16.00;95.90;;;;;;5071930;28;20021;-75
2021/09/16 04:26:49;;;;;;;2.85;1.00;;;16.00;95.70;;;;;;5072198;28;20051;-75
2021/09/16 04:29:15;;;;;;;5.30;1.52;;;16.00;95.70;;;;;;5072573;28;20071;-75
2021/09/16 04:31:41;;;;;;;2.70;1.40;;;16.00;95.80;;;;;;5070067;28;20103;-74
2021/09/16 04:34:07;;;;;;;2.45;1.20;;;16.10;95.80;;;;;;5069928;28;20451;-74
2021/09/16 04:36:34;;;;;;;3.05;1.27;;;16.10;95.70;;;;;;5070231;28;20052;-74
2021/09/16 04:39:00;;;;;;;2.78;1.10;;;16.10;95.70;;;;;;5071966;28;20040;-75
2021/09/16 04:41:25;;;;;;;2.90;0.98;;;16.10;95.80;;;;;;5072108;28;20033;-75
2021/09/16 04:43:51;;;;;;;2.55;0.90;;;16.10;95.70;;;;;;5067484;28;20063;-76
2021/09/16 04:46:17;;;;;;;4.35;1.17;;;16.10;95.80;;;;;;5070388;28;20025;-76
2021/09/16 04:48:42;;;;;;;3.80;1.58;;;16.10;95.80;;;;;;5071413;28;20035;-77
2021/09/16 04:51:08;;;;;;;1.05;0.85;;;16.10;96.10;;;;;;5071036;28;20028;-76
2021/09/16 04:53:33;;;;;;;3.70;0.90;;;16.10;95.80;;;;;;5070915;28;20020;-76
2021/09/16 04:55:59;;;;;;;6.78;1.25;;;16.20;95.90;;;;;;5071319;28;20028;-76
2021/09/16 04:58:25;;;;;;;3.13;0.98;;;16.20;95.90;;;;;;5070818;28;20035;-76
2021/09/16 05:00:50;;;;;;;2.17;1.05;;;16.20;95.90;;;;;;5071127;28;20032;-74
2021/09/16 05:03:16;;;;;;;1.77;0.95;;;16.20;95.90;;;;;;5070844;28;20020;-75
2021/09/16 05:05:42;;;;;;;3.95;0.80;;;16.30;95.90;;;;;;5068944;28;20380;-78
2021/09/16 05:08:08;;;;;;;2.80;0.90;;;16.30;95.90;;;;;;5070785;28;20021;-77
2021/09/16 05:10:33;;;;;;;3.63;1.10;;;16.30;96.00;;;;;;5069207;28;20359;-80
2021/09/16 05:12:59;;;;;;;1.23;0.75;;;16.30;96.00;;;;;;5068944;28;20178;-79
2021/09/16 05:15:25;;;;;;;0.80;0.52;;;16.20;95.90;;;;;;5070650;28;20028;-79
2021/09/16 05:17:51;;;;;;;3.40;0.93;;;16.20;96.00;;;;;;5070022;28;20037;-75
2021/09/16 05:20:17;;;;;;;6.43;1.48;;;16.20;96.00;;;;;;5069093;28;20136;-82
2021/09/16 05:22:43;;;;;;;1.80;1.10;;;16.20;96.00;;;;;;5069638;28;20115;-75
2021/09/16 05:25:09;;;;;;;2.50;0.98;;;16.20;96.00;;;;;;5070717;28;20020;-75
2021/09/16 05:27:35;;;;;;;2.28;0.90;;;16.20;96.00;;;;;;5071241;28;20049;-75
2021/09/16 05:30:07;;;;;;;4.10;1.40;;;16.20;96.00;;;;;;5069596;28;20481;-76
2021/09/16 05:32:33;;;;;;;2.10;1.08;;;16.20;96.00;;;;;;5070145;28;20132;-76
2021/09/16 05:34:58;;;;;;;2.15;1.00;;;16.20;96.00;;;;;;5071111;28;20752;-75
2021/09/16 05:37:24;;;;;;;1.20;0.80;;;16.20;96.00;;;;;;5071856;28;20028;-76
2021/09/16 05:39:50;;;;;;;2.88;0.90;;;16.20;96.00;;;;;;5069849;28;20025;-74
2021/09/16 05:42:16;;;;;;;2.15;0.95;;;16.20;96.00;;;;;;5070164;28;20123;-75
2021/09/16 05:44:42;;;;;;;2.78;0.98;;;16.20;96.00;;;;;;5071158;28;20043;-75
2021/09/16 05:47:08;;;;;;;3.30;1.00;;;16.20;96.10;;;;;;5070443;28;20020;-75
2021/09/16 05:49:33;;;;;;;1.48;0.80;;;16.20;96.00;;;;;;5071760;28;20049;-76
2021/09/16 05:51:59;;;;;;;1.20;0.80;;;16.20;96.00;;;;;;5069551;28;20747;-75
2021/09/16 05:54:25;;;;;;;4.43;0.93;;;16.20;96.00;;;;;;5072073;28;20475;-77
2021/09/16 05:56:51;;;;;;;2.75;1.02;;;16.20;96.00;;;;;;5071311;28;20036;-77
2021/09/16 05:59:17;;;;;;;3.58;0.98;;;16.20;96.00;;;;;;5071812;28;20491;-75
2021/09/16 06:01:43;;;;;;;0.85;0.70;;;16.20;96.00;;;;;;5070784;28;20032;-74
2021/09/16 06:04:09;;;;;;;1.48;0.80;;;16.20;96.00;;;;;;5071603;28;20021;-74
2021/09/16 06:06:35;;;;;;;1.13;0.70;;;16.10;96.00;;;;;;5071873;28;20028;-76
2021/09/16 06:09:00;;;;;;;1.25;0.90;;;16.10;96.10;;;;;;5069781;28;20102;-74
2021/09/16 06:11:27;;;;;;;3.13;1.15;;;16.00;96.10;;;;;;5070134;28;20353;-74
2021/09/16 06:13:56;;;;;;;2.67;1.20;;;16.00;96.20;;;;;;5070958;28;20021;-74
2021/09/16 06:16:23;;;;;;;1.80;1.23;;;16.00;96.20;;;;;;5070091;28;20384;-75
2021/09/16 06:18:49;;;;;;;4.50;1.27;;;15.90;96.30;;;;;;5069579;28;20375;-73
2021/09/16 06:21:15;;;;;;;3.05;1.08;;;15.90;96.30;;;;;;5071842;28;20029;-74
2021/09/16 06:23:42;;;;;;;1.65;0.90;;;15.90;96.30;;;;;;5070147;28;20062;-74
2021/09/16 06:26:08;;;;;;;3.97;1.00;;;15.80;96.40;;;;;;5070170;28;20020;-76
2021/09/16 06:28:34;;;;;;;1.75;0.80;;;15.80;96.60;;;;;;5071389;28;20054;-74
2021/09/16 06:30:59;;;;;;;2.92;1.10;;;15.80;96.40;;;;;;5069197;28;20021;-75
2021/09/16 06:33:25;;;;;;;3.10;0.93;;;15.80;96.40;;;;;;5071209;28;20101;-75
2021/09/16 06:35:51;;;;;;;2.90;0.95;;;15.80;96.40;;;;;;5070872;28;20016;-74
2021/09/16 06:38:17;;;;;;;1.20;0.90;;;15.90;96.40;;;;;;5073574;28;20036;-75
2021/09/16 06:40:43;;;;;;;3.38;0.90;;;15.80;96.40;;;;;;5075356;28;20025;-76
2021/09/16 06:43:09;;;;;;;2.00;1.00;;;15.80;96.40;;;;;;5075328;28;20044;-75
2021/09/16 06:45:34;;;;;;;5.57;1.17;;;15.80;96.40;;;;;;5075135;28;20453;-75
2021/09/16 06:48:00;;;;;;;6.35;1.52;;;15.90;96.40;;;;;;5072984;28;20020;-76
2021/09/16 06:50:26;;;;;;;4.93;1.00;;;15.80;96.30;;;;;;5073614;28;20016;-76
2021/09/16 06:52:52;;;;;;;2.00;0.90;;;15.80;96.40;;;;;;5074394;28;20021;-75
2021/09/16 06:55:18;;;;;;;3.80;0.80;;;15.80;96.30;;;;;;5073372;28;20052;-76
2021/09/16 06:57:44;;;;;;;1.90;1.10;;;15.80;96.30;;;;;;5074882;28;20128;-76
2021/09/16 07:00:10;;;;;;;2.13;1.08;;;15.80;96.30;;;;;;5074658;28;20420;-76
2021/09/16 07:02:37;;;;;;;3.70;1.20;;;15.90;96.20;;;;;;5074782;28;20119;-76
2021/09/16 07:05:04;;;;;;;3.13;1.02;;;15.90;96.20;;;;;;5074047;28;20060;-76
2021/09/16 07:07:30;;;;;;;1.83;1.10;;;15.90;96.20;;;;;;5073371;28;20017;-75
2021/09/16 07:09:57;;;;;;;5.05;1.13;;;15.90;96.20;;;;;;5072228;28;20044;-75
2021/09/16 07:12:22;;;;;;;2.00;1.58;;;16.00;96.10;;;;;;5073517;28;20112;-75
2021/09/16 07:14:48;;;;;;;3.10;0.93;;;16.00;96.10;;;;;;5073803;28;20056;-75
2021/09/16 07:17:14;;;;;;;5.25;1.13;;;16.00;96.00;;;;;;5073103;28;20098;-75
2021/09/16 07:19:40;;;;;;;3.28;1.45;;;16.00;96.00;;;;;;5072788;28;20043;-75
2021/09/16 07:22:06;;;;;;;2.47;1.15;;;16.00;96.00;;;;;;5073508;28;20319;-75
2021/09/16 07:24:31;;;;;;;2.35;0.98;;;16.10;96.00;;;;;;5072730;28;20028;-76
2021/09/16 07:26:57;;;;;;;2.33;1.00;;;16.20;96.00;;;;;;5073280;28;20044;-75
2021/09/16 07:29:24;;;;;;;1.60;0.77;;;16.20;95.90;;;;;;5074324;28;20417;-76
2021/09/16 07:31:51;;;;;;;3.90;1.02;;;16.20;95.80;;;;;;5073722;28;20112;-75
2021/09/16 07:34:19;;;;;;;3.42;1.25;;;16.30;95.80;;;;;;5072942;28;20021;-75
2021/09/16 07:36:46;;;;;;;3.22;1.65;;;16.30;95.80;;;;;;5073906;28;20496;-75
2021/09/16 07:39:14;;;;;;;3.08;1.10;;;16.40;95.80;;;;;;5073929;28;20028;-75
2021/09/16 07:41:40;;;;;;;3.47;1.25;;;16.40;95.70;;;;;;5074136;28;20029;-75
2021/09/16 07:44:06;;;;;;;3.17;1.02;;;16.50;95.70;;;;;;5073353;28;20021;-77
2021/09/16 07:46:32;;;;;;;2.55;0.82;;;16.50;95.60;;;;;;5074100;28;20110;-75
2021/09/16 07:48:59;;;;;;;1.30;0.82;;;16.50;95.60;;;;;;5071357;28;20033;-75
2021/09/16 07:51:25;;;;;;;2.13;0.95;;;16.60;95.50;;;;;;5073979;28;20060;-75
2021/09/16 07:53:51;;;;;;;1.70;0.95;;;16.70;95.40;;;;;;5071803;28;20021;-76
2021/09/16 07:56:19;;;;;;;1.95;0.98;;;16.70;95.40;;;;;;5073515;28;20021;-76
2021/09/16 07:58:45;;;;;;;4.63;1.33;;;16.80;95.30;;;;;;5073763;28;20020;-75
2021/09/16 08:01:11;;;;;;;3.80;0.90;;;16.90;95.20;;;;;;5071812;28;20013;-76
2021/09/16 08:03:37;;;;;;;3.28;1.00;;;17.10;95.10;;;;;;5073768;28;20016;-76
2021/09/16 08:06:03;;;;;;;1.75;0.77;;;17.20;94.90;;;;;;5072838;28;20341;-73
2021/09/16 08:08:29;;;;;;;2.08;0.80;;;17.40;94.80;;;;;;5073152;28;20575;-75
2021/09/16 08:10:55;;;;;;;1.05;0.75;;;17.40;94.60;;;;;;5072950;28;20056;-75
2021/09/16 08:13:21;;;;;;;2.05;0.88;;;17.50;94.60;;;;;;5072148;28;20035;-75
2021/09/16 08:15:47;;;;;;;3.35;1.20;;;17.50;94.60;;;;;;5073411;28;20040;-75
2021/09/16 08:18:12;;;;;;;2.42;1.27;;;17.40;94.60;;;;;;5072666;28;20025;-75
2021/09/16 08:20:45;;;;;;;1.38;0.88;;;17.40;94.70;;;;;;5073011;28;20493;-75
2021/09/16 08:23:11;;;;;;;1.73;0.80;;;17.30;94.70;;;;;;5071299;28;20020;-75
2021/09/16 08:25:37;;;;;;;2.88;0.98;;;17.30;94.80;;;;;;5072858;28;20025;-75
2021/09/16 08:28:03;;;;;;;3.13;1.05;;;17.30;94.80;;;;;;5070873;28;20452;-74
2021/09/16 08:30:29;;;;;;;3.38;0.90;;;17.20;94.80;;;;;;5073050;28;20044;-75
2021/09/16 08:32:55;;;;;;;2.10;1.00;;;17.30;94.80;;;;;;5072225;28;20020;-75
2021/09/16 08:35:21;;;;;;;2.65;0.98;;;17.40;94.70;;;;;;5073139;28;20530;-75
2021/09/16 08:37:47;;;;;;;1.00;0.80;;;17.30;94.60;;;;;;5073317;28;20028;-75
2021/09/16 08:40:14;;;;;;;2.08;1.10;;;17.40;94.60;;;;;;5070993;28;20016;-76
2021/09/16 08:42:43;;;;;;;3.15;1.10;;;17.40;94.40;;;;;;5071450;28;20028;-75
2021/09/16 08:45:14;;;;;;;2.25;0.75;;;17.50;94.20;;;;;;5071898;28;20552;-75
2021/09/16 08:47:48;;;;;;;1.95;0.73;;;17.60;94.10;;;;;;5072771;28;20453;-75
2021/09/16 08:50:15;;;;;;;1.23;0.75;;;17.60;94.00;;;;;;5072013;28;20032;-75
2021/09/16 08:52:46;;;;;;;1.95;0.85;;;17.70;93.90;;;;;;5071293;28;20135;-75
2021/09/16 08:55:14;;;;;;;3.03;0.88;;;17.70;93.90;;;;;;5071709;28;20347;-74
2021/09/16 08:57:42;;;;;;;2.58;0.80;;;17.70;93.80;;;;;;5072791;28;20055;-75
2021/09/16 09:00:14;;;;;;;0.68;0.60;;;17.80;93.70;;;;;;5070392;28;20060;-75
2021/09/16 09:02:40;;;;;;;4.15;0.90;;;17.80;93.60;;;;;;5072539;28;20123;-75
2021/09/16 09:05:08;;;;;;;2.55;0.82;;;17.90;93.40;;;;;;5071860;28;20024;-75
2021/09/16 09:07:42;;;;;;;2.15;0.88;;;18.00;93.20;;;;;;5072106;28;20016;-75
2021/09/16 09:10:11;;;;;;;0.98;0.88;;;18.20;93.00;;;;;;5070296;28;20139;-75
2021/09/16 09:12:38;;;;;;;1.55;0.70;;;18.30;92.70;;;;;;5070930;28;20389;-75
2021/09/16 09:15:07;;;;;;;1.08;0.80;;;18.30;92.90;;;;;;5071536;28;20104;-75
2021/09/16 09:17:34;;;;;;;2.22;1.08;;;18.30;92.60;;;;;;5071880;28;20027;-75
2021/09/16 09:20:10;;;;;;;1.27;0.93;;;18.40;92.40;;;;;;5070312;28;20055;-75
2021/09/16 09:22:40;;;;;;;3.80;1.00;;;18.40;92.50;;;;;;5070859;28;20024;-76
2021/09/16 09:25:12;;;;;;;1.95;0.90;;;18.30;92.30;;;;;;5070150;28;20016;-76
2021/09/16 09:27:46;;;;;;;1.95;1.20;;;18.40;92.20;;;;;;5072286;28;20067;-75
2021/09/16 09:30:16;;;;;;;2.85;1.00;;;18.50;92.20;;;;;;5070095;28;20059;-75
2021/09/16 09:32:57;;;;;;;2.00;0.82;;;18.40;92.20;;;;;;5071846;28;20141;-75
2021/09/16 09:35:36;;;;;;;1.38;1.00;;;18.40;92.20;;;;;;5072031;28;20066;-75
2021/09/16 09:38:04;;;;;;;4.00;0.95;;;18.40;92.20;;;;;;5071526;28;20151;-75
2021/09/16 09:40:37;;;;;;;1.70;0.63;;;18.50;92.20;;;;;;5070660;28;20061;-75
2021/09/16 09:43:25;;;;;;;3.17;1.35;;;18.50;92.10;;;;;;5069959;28;20372;-75
2021/09/16 09:46:12;;;;;;;1.02;0.57;;;18.60;91.90;;;;;;5071974;28;20049;-75
2021/09/16 09:48:40;;;;;;;0.75;0.70;;;18.70;91.80;;;;;;5071758;28;20047;-75
2021/09/16 09:51:07;;;;;;;1.83;0.70;;;18.70;91.70;;;;;;5071175;28;20020;-75
2021/09/16 09:53:45;;;;;;;2.80;1.10;;;18.60;91.60;;;;;;5071703;28;20507;-75
2021/09/16 09:56:16;;;;;;;2.45;0.80;;;18.60;91.60;;;;;;5069915;28;20050;-76
2021/09/16 09:58:43;;;;;;;1.17;0.60;;;18.60;91.50;;;;;;5071814;28;20488;-76
2021/09/16 10:01:25;;;;;;;1.73;1.00;;;18.70;91.30;;;;;;5070842;28;20020;-76
2021/09/16 10:03:51;;;;;;;3.45;1.00;;;18.80;91.20;;;;;;5071712;28;20030;-75
2021/09/16 10:06:17;;;;;;;1.92;0.75;;;18.70;91.10;;;;;;5071117;28;20382;-74
2021/09/16 10:08:43;;;;;;;2.47;0.88;;;18.70;91.00;;;;;;5071616;28;20048;-75
2021/09/16 10:11:08;;;;;;;2.08;1.10;;;18.70;90.90;;;;;;5071223;28;20067;-75
2021/09/16 10:13:35;;;;;;;5.90;1.25;;;18.80;90.80;;;;;;5074353;28;20358;-75
2021/09/16 10:16:04;;;;;;;4.57;1.05;;;18.80;90.70;;;;;;5075631;28;20031;-75
2021/09/16 10:18:32;;;;;;;0.90;0.70;;;18.90;90.60;;;;;;5075630;28;20028;-75
2021/09/16 10:21:00;;;;;;;1.55;0.90;;;19.00;90.40;;;;;;5075494;28;20025;-75
2021/09/16 10:23:28;;;;;;;3.70;0.95;;;19.10;90.20;;;;;;5075137;28;20082;-75
2021/09/16 10:25:55;;;;;;;1.63;0.90;;;19.20;90.10;;;;;;5073716;28;20041;-75
2021/09/16 10:28:22;;;;;;;2.70;0.95;;;19.20;89.80;;;;;;5073097;28;20041;-75
2021/09/16 10:30:48;;;;;;;1.15;0.70;;;19.20;89.80;;;;;;5075369;28;20508;-75
2021/09/16 10:33:17;;;;;;;2.47;0.90;;;19.20;90.00;;;;;;5074686;28;20016;-75
2021/09/16 10:35:58;;;;;;;2.50;0.77;;;19.20;89.90;;;;;;5073944;28;20020;-75
2021/09/16 10:38:25;;;;;;;2.80;0.98;;;19.20;89.20;;;;;;5074314;28;20504;-76
2021/09/16 10:41:31;;;;;;;2.60;1.05;;;19.40;89.00;;;;;;5075368;28;20036;-76
2021/09/16 10:44:00;;;;;;;1.40;0.90;;;19.50;87.90;;;;;;5043413;28;20076;-75
2021/09/16 10:46:40;;;;;;;1.70;0.93;;;19.60;86.50;;;;;;5073554;28;20483;-75
2021/09/16 10:49:24;;;;;;;2.53;0.98;;;19.70;86.40;;;;;;5074480;28;20036;-76
2021/09/16 10:52:01;;;;;;;1.20;0.60;;;19.80;86.10;;;;;;5074991;28;20055;-75
2021/09/16 10:54:34;;;;;;;1.05;0.70;;;19.80;86.10;;;;;;5074818;28;20025;-75
2021/09/16 10:57:21;;;;;;;1.58;0.70;;;19.80;86.30;;;;;;5074803;28;20457;-75
2021/09/16 10:59:47;;;;;;;4.53;1.05;;;19.80;86.40;;;;;;5073333;28;20547;-75
2021/09/16 11:02:17;;;;;;;1.88;0.93;;;19.80;86.10;;;;;;5073172;28;20121;-75
2021/09/16 11:04:55;;;;;;;1.60;1.10;;;19.90;85.50;;;;;;5074629;28;20131;-75
2021/09/16 11:07:33;;;;;;;1.88;1.10;;;20.00;85.30;;;;;;5072659;28;20481;-75
2021/09/16 11:10:20;;;;;;;1.95;1.10;;;20.10;85.00;;;;;;5073184;28;20346;-75
2021/09/16 11:12:53;;;;;;;0.98;0.80;;;20.20;84.10;;;;;;5073205;28;20032;-75
2021/09/16 11:15:26;;;;;;;1.50;0.98;;;20.30;84.20;;;;;;5074201;28;20028;-75
2021/09/16 11:18:02;;;;;;;3.38;1.13;;;20.40;83.50;;;;;;5074210;28;20028;-75
2021/09/16 11:20:28;;;;;;;2.25;1.10;;;20.50;82.50;;;;;;5074729;28;20025;-75
2021/09/16 11:22:54;;;;;;;1.67;0.93;;;20.50;81.60;;;;;;5074669;28;20036;-76
2021/09/16 11:25:20;;;;;;;3.40;1.10;;;20.50;81.70;;;;;;5072702;28;20040;-75
2021/09/16 11:27:46;;;;;;;0.88;0.70;;;20.60;81.50;;;;;;5074046;28;20488;-75
2021/09/16 11:30:18;;;;;;;2.67;1.20;;;20.70;81.20;;;;;;5073410;28;20469;-75
2021/09/16 11:32:44;;;;;;;2.40;1.00;;;20.80;81.20;;;;;;5072926;28;20021;-75
2021/09/16 11:35:27;;;;;;;2.33;0.90;;;20.70;81.40;;;;;;5071889;28;20035;-76
2021/09/16 11:37:53;;;;;;;1.67;1.00;;;20.60;81.60;;;;;;5074294;28;20060;-76
2021/09/16 11:40:25;;;;;;;2.13;0.82;;;20.60;81.90;;;;;;5073366;28;20020;-76
2021/09/16 11:42:53;;;;;;;1.35;0.88;;;20.40;82.20;;;;;;5074091;28;20044;-75
2021/09/16 11:45:28;;;;;;;2.22;1.20;;;20.30;82.50;;;;;;5072099;28;20017;-75
2021/09/16 11:48:07;;;;;;;1.05;0.70;;;20.30;82.80;;;;;;5073962;28;20031;-76
2021/09/16 11:50:44;;;;;;;1.63;0.90;;;20.40;82.40;;;;;;5073920;28;20067;-76
2021/09/16 11:53:25;;;;;;;2.22;0.90;;;20.70;81.80;;;;;;5073630;28;20044;-74
2021/09/16 11:55:56;;;;;;;1.45;0.80;;;20.90;81.00;;;;;;5072561;28;20028;-75
2021/09/16 11:58:29;;;;;;;2.33;1.00;;;21.00;80.90;;;;;;5073093;28;20031;-75
2021/09/16 12:01:08;;;;;;;3.92;1.00;;;20.90;80.70;;;;;;5072493;28;20036;-75
2021/09/16 12:03:39;;;;;;;3.15;1.10;;;20.80;80.70;;;;;;5073989;28;20108;-76
2021/09/16 12:06:10;;;;;;;;;;;20.80;81.20;;;;;;5074201;28;20020;-75
2021/09/16 12:08:38;;;;;;;2.92;0.90;;;20.80;81.40;;;;;;5073270;28;20399;-75
2021/09/16 12:11:11;;;;;;;2.90;0.93;;;20.90;81.50;;;;;;5073680;28;20482;-75
2021/09/16 12:13:42;;;;;;;2.63;1.13;;;21.10;81.00;;;;;;5071843;28;20503;-75
2021/09/16 12:16:12;;;;;;;1.38;0.90;;;21.20;80.20;;;;;;5071628;28;20016;-75
2021/09/16 12:18:41;;;;;;;1.57;1.00;;;21.20;80.20;;;;;;5071972;28;20028;-74
2021/09/16 12:21:10;;;;;;;1.13;0.80;;;21.10;80.10;;;;;;5072876;28;20777;-76
2021/09/16 12:23:38;;;;;;;1.10;0.80;;;21.10;80.20;;;;;;5073532;28;20082;-75
2021/09/16 12:26:07;;;;;;;1.88;0.90;;;21.00;80.40;;;;;;5073111;28;20020;-75
2021/09/16 12:28:49;;;;;;;2.67;1.10;;;20.80;80.80;;;;;;5072653;28;20049;-75
2021/09/16 12:31:15;;;;;;;1.35;0.82;;;20.70;80.80;;;;;;5072601;28;20024;-75
2021/09/16 12:33:41;;;;;;;2.30;0.88;;;20.70;81.10;;;;;;5072843;28;20070;-74
2021/09/16 12:36:21;;;;;;;2.35;0.85;;;20.60;81.10;;;;;;5072806;28;20357;-74
2021/09/16 12:38:50;;;;;;;0.70;0.70;;;20.60;81.40;;;;;;5071719;28;20039;-74
2021/09/16 12:41:24;;;;;;;2.13;0.85;;;20.60;81.20;;;;;;5072718;28;20028;-74
2021/09/16 12:44:00;;;;;;;1.70;0.90;;;20.70;81.10;;;;;;5072932;28;20051;-74
2021/09/16 12:46:26;;;;;;;2.30;1.13;;;20.80;80.70;;;;;;5070743;28;20024;-74
2021/09/16 12:48:53;;;;;;;0.93;0.70;;;20.90;79.70;;;;;;5071245;28;20039;-75
2021/09/16 12:51:22;;;;;;;2.50;0.80;;;21.00;79.50;;;;;;5071762;28;20024;-75